sensor_id;sensor_type;location;lat;lon;timestamp;temperature;humidity
70830;SHT30;58451;51.550;7.208;2023-02-11T00:00:40;6.93;76.88
70830;SHT30;58451;51.550;7.208;2023-02-11T00:02:13;6.93;76.68
70830;SHT30;58451;51.550;7.208;2023-02-11T00:03:44;6.93;76.73
70830;SHT30;58451;51.550;7.208;2023-02-11T00:05:16;6.94;76.82
70830;SHT30;58451;51.550;7.208;2023-02-11T00:06:48;6.94;76.95
70830;SHT30;58451;51.550;7.208;2023-02-11T00:08:20;6.94;76.82
70830;SHT30;58451;51.550;7.208;2023-02-11T00:09:52;6.93;76.77
70830;SHT30;58451;51.550;7.208;2023-02-11T00:11:24;6.92;76.82
70830;SHT30;58451;51.550;7.208;2023-02-11T00:13:00;6.91;76.78
70830;SHT30;58451;51.550;7.208;2023-02-11T00:14:32;6.88;76.93
70830;SHT30;58451;51.550;7.208;2023-02-11T00:16:08;6.86;77.10
70830;SHT30;58451;51.550;7.208;2023-02-11T00:17:44;6.86;76.87
70830;SHT30;58451;51.550;7.208;2023-02-11T00:19:15;6.84;76.93
70830;SHT30;58451;51.550;7.208;2023-02-11T00:20:47;6.82;76.93
70830;SHT30;58451;51.550;7.208;2023-02-11T00:22:19;6.82;76.95
70830;SHT30;58451;51.550;7.208;2023-02-11T00:23:51;6.81;77.02
70830;SHT30;58451;51.550;7.208;2023-02-11T00:25:25;6.82;76.88
70830;SHT30;58451;51.550;7.208;2023-02-11T00:26:57;6.82;76.83
70830;SHT30;58451;51.550;7.208;2023-02-11T00:28:30;6.82;76.97
70830;SHT30;58451;51.550;7.208;2023-02-11T00:30:02;6.83;76.95
70830;SHT30;58451;51.550;7.208;2023-02-11T00:31:35;6.84;77.05
70830;SHT30;58451;51.550;7.208;2023-02-11T00:33:08;6.85;77.17
70830;SHT30;58451;51.550;7.208;2023-02-11T00:34:40;6.84;77.03
70830;SHT30;58451;51.550;7.208;2023-02-11T00:36:13;6.86;77.22
70830;SHT30;58451;51.550;7.208;2023-02-11T00:37:51;6.87;77.05
70830;SHT30;58451;51.550;7.208;2023-02-11T00:39:25;6.89;76.92
70830;SHT30;58451;51.550;7.208;2023-02-11T00:40:57;6.91;77.17
70830;SHT30;58451;51.550;7.208;2023-02-11T00:42:29;6.92;77.10
70830;SHT30;58451;51.550;7.208;2023-02-11T00:44:01;6.94;77.02
70830;SHT30;58451;51.550;7.208;2023-02-11T00:45:34;6.98;76.95
70830;SHT30;58451;51.550;7.208;2023-02-11T00:47:05;6.99;76.88
70830;SHT30;58451;51.550;7.208;2023-02-11T00:48:37;7.00;77.02
70830;SHT30;58451;51.550;7.208;2023-02-11T00:50:12;7.01;77.02
70830;SHT30;58451;51.550;7.208;2023-02-11T00:51:45;7.04;77.00
70830;SHT30;58451;51.550;7.208;2023-02-11T00:53:17;7.05;77.00
70830;SHT30;58451;51.550;7.208;2023-02-11T00:54:48;7.07;76.88
70830;SHT30;58451;51.550;7.208;2023-02-11T00:56:20;7.08;76.88
70830;SHT30;58451;51.550;7.208;2023-02-11T00:57:52;7.09;76.90
70830;SHT30;58451;51.550;7.208;2023-02-11T00:59:24;7.12;76.82
70830;SHT30;58451;51.550;7.208;2023-02-11T01:00:56;7.13;76.80
70830;SHT30;58451;51.550;7.208;2023-02-11T01:02:28;7.13;76.80
70830;SHT30;58451;51.550;7.208;2023-02-11T01:03:59;7.14;76.80
70830;SHT30;58451;51.550;7.208;2023-02-11T01:05:31;7.15;76.75
70830;SHT30;58451;51.550;7.208;2023-02-11T01:07:03;7.18;76.70
70830;SHT30;58451;51.550;7.208;2023-02-11T01:08:35;7.19;76.65
70830;SHT30;58451;51.550;7.208;2023-02-11T01:10:07;7.21;76.57
70830;SHT30;58451;51.550;7.208;2023-02-11T01:11:39;7.22;76.52
70830;SHT30;58451;51.550;7.208;2023-02-11T01:13:11;7.22;76.50
70830;SHT30;58451;51.550;7.208;2023-02-11T01:14:43;7.22;76.45
70830;SHT30;58451;51.550;7.208;2023-02-11T01:16:15;7.24;76.42
70830;SHT30;58451;51.550;7.208;2023-02-11T01:17:49;7.25;76.40
70830;SHT30;58451;51.550;7.208;2023-02-11T01:19:23;7.26;76.35
70830;SHT30;58451;51.550;7.208;2023-02-11T01:20:55;7.28;76.33
70830;SHT30;58451;51.550;7.208;2023-02-11T01:22:26;7.28;76.30
70830;SHT30;58451;51.550;7.208;2023-02-11T01:23:58;7.29;76.28
70830;SHT30;58451;51.550;7.208;2023-02-11T01:25:30;7.28;76.28
70830;SHT30;58451;51.550;7.208;2023-02-11T01:27:01;7.29;76.22
70830;SHT30;58451;51.550;7.208;2023-02-11T01:28:33;7.30;76.20
70830;SHT30;58451;51.550;7.208;2023-02-11T01:30:06;7.32;76.15
70830;SHT30;58451;51.550;7.208;2023-02-11T01:31:40;7.32;76.13
70830;SHT30;58451;51.550;7.208;2023-02-11T01:33:12;7.31;76.12
70830;SHT30;58451;51.550;7.208;2023-02-11T01:34:44;7.33;76.13
70830;SHT30;58451;51.550;7.208;2023-02-11T01:36:16;7.34;76.12
70830;SHT30;58451;51.550;7.208;2023-02-11T01:37:48;7.34;76.10
70830;SHT30;58451;51.550;7.208;2023-02-11T01:39:19;7.34;76.10
70830;SHT30;58451;51.550;7.208;2023-02-11T01:40:53;7.32;76.05
70830;SHT30;58451;51.550;7.208;2023-02-11T01:42:31;7.33;76.07
70830;SHT30;58451;51.550;7.208;2023-02-11T01:44:23;7.33;76.03
70830;SHT30;58451;51.550;7.208;2023-02-11T01:48:06;7.31;76.00
70830;SHT30;58451;51.550;7.208;2023-02-11T01:49:41;7.32;76.00
70830;SHT30;58451;51.550;7.208;2023-02-11T01:51:25;7.33;75.98
70830;SHT30;58451;51.550;7.208;2023-02-11T01:53:03;7.32;75.98
70830;SHT30;58451;51.550;7.208;2023-02-11T01:54:58;7.32;75.98
70830;SHT30;58451;51.550;7.208;2023-02-11T01:56:54;7.30;76.00
70830;SHT30;58451;51.550;7.208;2023-02-11T01:58:48;7.30;76.05
70830;SHT30;58451;51.550;7.208;2023-02-11T02:00:33;7.29;76.00
70830;SHT30;58451;51.550;7.208;2023-02-11T02:02:09;7.30;76.00
70830;SHT30;58451;51.550;7.208;2023-02-11T02:03:44;7.31;76.02
70830;SHT30;58451;51.550;7.208;2023-02-11T02:05:25;7.28;76.08
70830;SHT30;58451;51.550;7.208;2023-02-11T02:07:29;7.28;76.03
70830;SHT30;58451;51.550;7.208;2023-02-11T02:09:14;7.28;76.02
70830;SHT30;58451;51.550;7.208;2023-02-11T02:10:55;7.28;76.00
70830;SHT30;58451;51.550;7.208;2023-02-11T02:12:31;7.27;76.02
70830;SHT30;58451;51.550;7.208;2023-02-11T02:14:02;7.26;76.00
70830;SHT30;58451;51.550;7.208;2023-02-11T02:15:37;7.26;76.03
70830;SHT30;58451;51.550;7.208;2023-02-11T02:17:24;7.26;75.98
70830;SHT30;58451;51.550;7.208;2023-02-11T02:26:34;7.20;76.17
70830;SHT30;58451;51.550;7.208;2023-02-11T02:31:14;7.20;76.22
70830;SHT30;58451;51.550;7.208;2023-02-11T02:33:33;7.17;76.20
70830;SHT30;58451;51.550;7.208;2023-02-11T02:37:41;7.17;76.20
70830;SHT30;58451;51.550;7.208;2023-02-11T02:39:34;7.18;76.13
70830;SHT30;58451;51.550;7.208;2023-02-11T02:42:49;7.18;76.17
70830;SHT30;58451;51.550;7.208;2023-02-11T02:44:23;7.19;76.13
70830;SHT30;58451;51.550;7.208;2023-02-11T02:45:55;7.20;76.10
70830;SHT30;58451;51.550;7.208;2023-02-11T02:47:54;7.18;76.25
70830;SHT30;58451;51.550;7.208;2023-02-11T02:49:27;7.19;76.13
70830;SHT30;58451;51.550;7.208;2023-02-11T02:55:11;7.18;76.18
70830;SHT30;58451;51.550;7.208;2023-02-11T03:01:41;7.15;76.32
70830;SHT30;58451;51.550;7.208;2023-02-11T03:05:16;7.16;76.32
70830;SHT30;58451;51.550;7.208;2023-02-11T03:11:04;7.13;76.27
70830;SHT30;58451;51.550;7.208;2023-02-11T03:12:39;7.12;76.40
70830;SHT30;58451;51.550;7.208;2023-02-11T03:14:16;7.13;76.35
70830;SHT30;58451;51.550;7.208;2023-02-11T03:15:49;7.11;76.35
70830;SHT30;58451;51.550;7.208;2023-02-11T03:17:26;7.09;76.65
70830;SHT30;58451;51.550;7.208;2023-02-11T03:19:02;7.07;76.52
70830;SHT30;58451;51.550;7.208;2023-02-11T03:20:49;7.06;76.62
70830;SHT30;58451;51.550;7.208;2023-02-11T03:22:26;7.06;76.57
70830;SHT30;58451;51.550;7.208;2023-02-11T03:24:06;7.02;76.90
70830;SHT30;58451;51.550;7.208;2023-02-11T03:25:55;7.01;76.78
70830;SHT30;58451;51.550;7.208;2023-02-11T03:31:36;6.98;76.77
70830;SHT30;58451;51.550;7.208;2023-02-11T03:33:38;6.97;76.73
70830;SHT30;58451;51.550;7.208;2023-02-11T03:35:40;6.95;76.88
70830;SHT30;58451;51.550;7.208;2023-02-11T03:37:31;6.94;76.82
70830;SHT30;58451;51.550;7.208;2023-02-11T03:41:45;6.91;77.17
70830;SHT30;58451;51.550;7.208;2023-02-11T03:43:21;6.90;77.02
70830;SHT30;58451;51.550;7.208;2023-02-11T03:45:06;6.89;77.28
70830;SHT30;58451;51.550;7.208;2023-02-11T03:46:43;6.90;77.20
70830;SHT30;58451;51.550;7.208;2023-02-11T03:48:28;6.87;77.37
70830;SHT30;58451;51.550;7.208;2023-02-11T03:50:05;6.86;77.30
70830;SHT30;58451;51.550;7.208;2023-02-11T03:51:41;6.86;77.22
70830;SHT30;58451;51.550;7.208;2023-02-11T03:53:14;6.85;77.30
70830;SHT30;58451;51.550;7.208;2023-02-11T03:54:48;6.87;77.55
70830;SHT30;58451;51.550;7.208;2023-02-11T03:56:27;6.84;77.72
70830;SHT30;58451;51.550;7.208;2023-02-11T03:58:05;6.82;77.90
70830;SHT30;58451;51.550;7.208;2023-02-11T03:59:54;6.80;78.02
70830;SHT30;58451;51.550;7.208;2023-02-11T04:01:28;6.78;77.97
70830;SHT30;58451;51.550;7.208;2023-02-11T04:03:00;6.76;78.15
70830;SHT30;58451;51.550;7.208;2023-02-11T04:04:32;6.74;77.95
70830;SHT30;58451;51.550;7.208;2023-02-11T04:06:04;6.74;77.93
70830;SHT30;58451;51.550;7.208;2023-02-11T04:07:36;6.74;78.00
70830;SHT30;58451;51.550;7.208;2023-02-11T04:09:08;6.74;78.02
70830;SHT30;58451;51.550;7.208;2023-02-11T04:10:41;6.73;78.17
70830;SHT30;58451;51.550;7.208;2023-02-11T04:12:13;6.71;78.55
70830;SHT30;58451;51.550;7.208;2023-02-11T04:13:45;6.68;79.07
70830;SHT30;58451;51.550;7.208;2023-02-11T04:15:16;6.66;79.23
70830;SHT30;58451;51.550;7.208;2023-02-11T04:16:48;6.63;79.92
70830;SHT30;58451;51.550;7.208;2023-02-11T04:18:20;6.61;79.75
70830;SHT30;58451;51.550;7.208;2023-02-11T04:19:51;6.59;79.67
70830;SHT30;58451;51.550;7.208;2023-02-11T04:21:23;6.57;79.57
70830;SHT30;58451;51.550;7.208;2023-02-11T04:22:55;6.56;80.13
70830;SHT30;58451;51.550;7.208;2023-02-11T04:24:27;6.55;79.70
70830;SHT30;58451;51.550;7.208;2023-02-11T04:25:59;6.54;79.53
70830;SHT30;58451;51.550;7.208;2023-02-11T04:27:31;6.53;79.33
70830;SHT30;58451;51.550;7.208;2023-02-11T04:29:03;6.51;79.50
70830;SHT30;58451;51.550;7.208;2023-02-11T04:30:35;6.49;80.48
70830;SHT30;58451;51.550;7.208;2023-02-11T04:32:06;6.47;80.23
70830;SHT30;58451;51.550;7.208;2023-02-11T04:33:39;6.46;80.40
70830;SHT30;58451;51.550;7.208;2023-02-11T04:35:11;6.43;80.38
70830;SHT30;58451;51.550;7.208;2023-02-11T04:36:42;6.43;80.27
70830;SHT30;58451;51.550;7.208;2023-02-11T04:38:14;6.41;80.33
70830;SHT30;58451;51.550;7.208;2023-02-11T04:39:46;6.40;80.58
70830;SHT30;58451;51.550;7.208;2023-02-11T04:41:19;6.39;80.38
70830;SHT30;58451;51.550;7.208;2023-02-11T04:42:51;6.38;80.77
70830;SHT30;58451;51.550;7.208;2023-02-11T04:44:23;6.37;80.68
70830;SHT30;58451;51.550;7.208;2023-02-11T04:45:57;6.38;80.78
70830;SHT30;58451;51.550;7.208;2023-02-11T04:47:29;6.35;81.60
70830;SHT30;58451;51.550;7.208;2023-02-11T04:49:01;6.33;81.92
70830;SHT30;58451;51.550;7.208;2023-02-11T04:50:33;6.33;81.22
70830;SHT30;58451;51.550;7.208;2023-02-11T04:52:05;6.32;81.07
70830;SHT30;58451;51.550;7.208;2023-02-11T04:53:37;6.32;81.38
70830;SHT30;58451;51.550;7.208;2023-02-11T04:55:08;6.31;81.68
70830;SHT30;58451;51.550;7.208;2023-02-11T04:56:40;6.31;81.02
70830;SHT30;58451;51.550;7.208;2023-02-11T04:58:12;6.30;80.88
70830;SHT30;58451;51.550;7.208;2023-02-11T04:59:44;6.30;81.22
70830;SHT30;58451;51.550;7.208;2023-02-11T05:01:15;6.28;81.55
70830;SHT30;58451;51.550;7.208;2023-02-11T05:02:48;6.28;81.17
70830;SHT30;58451;51.550;7.208;2023-02-11T05:04:19;6.29;81.42
70830;SHT30;58451;51.550;7.208;2023-02-11T05:05:51;6.29;81.47
70830;SHT30;58451;51.550;7.208;2023-02-11T05:07:23;6.28;81.30
70830;SHT30;58451;51.550;7.208;2023-02-11T05:08:55;6.27;81.82
70830;SHT30;58451;51.550;7.208;2023-02-11T05:10:27;6.28;81.52
70830;SHT30;58451;51.550;7.208;2023-02-11T05:11:59;6.28;81.33
70830;SHT30;58451;51.550;7.208;2023-02-11T05:13:31;6.28;81.53
70830;SHT30;58451;51.550;7.208;2023-02-11T05:15:02;6.28;81.65
70830;SHT30;58451;51.550;7.208;2023-02-11T05:16:35;6.27;81.40
70830;SHT30;58451;51.550;7.208;2023-02-11T05:18:07;6.28;81.33
70830;SHT30;58451;51.550;7.208;2023-02-11T05:19:40;6.28;81.43
70830;SHT30;58451;51.550;7.208;2023-02-11T05:21:16;6.27;81.85
70830;SHT30;58451;51.550;7.208;2023-02-11T05:22:49;6.27;82.15
70830;SHT30;58451;51.550;7.208;2023-02-11T05:24:22;6.26;82.05
70830;SHT30;58451;51.550;7.208;2023-02-11T05:25:53;6.28;81.73
70830;SHT30;58451;51.550;7.208;2023-02-11T05:27:25;6.28;81.88
70830;SHT30;58451;51.550;7.208;2023-02-11T05:28:57;6.29;81.60
70830;SHT30;58451;51.550;7.208;2023-02-11T05:30:29;6.31;81.40
70830;SHT30;58451;51.550;7.208;2023-02-11T05:32:01;6.32;81.43
70830;SHT30;58451;51.550;7.208;2023-02-11T05:33:34;6.32;81.87
70830;SHT30;58451;51.550;7.208;2023-02-11T05:35:05;6.31;82.07
70830;SHT30;58451;51.550;7.208;2023-02-11T05:36:38;6.30;82.33
70830;SHT30;58451;51.550;7.208;2023-02-11T05:38:10;6.28;82.10
70830;SHT30;58451;51.550;7.208;2023-02-11T05:39:42;6.30;82.18
70830;SHT30;58451;51.550;7.208;2023-02-11T05:41:14;6.29;82.32
70830;SHT30;58451;51.550;7.208;2023-02-11T05:42:46;6.32;81.82
70830;SHT30;58451;51.550;7.208;2023-02-11T05:44:18;6.35;81.72
70830;SHT30;58451;51.550;7.208;2023-02-11T05:45:50;6.34;81.95
70830;SHT30;58451;51.550;7.208;2023-02-11T05:47:22;6.33;82.37
70830;SHT30;58451;51.550;7.208;2023-02-11T05:48:54;6.32;82.42
70830;SHT30;58451;51.550;7.208;2023-02-11T05:50:26;6.33;82.20
70830;SHT30;58451;51.550;7.208;2023-02-11T05:51:58;6.33;82.28
70830;SHT30;58451;51.550;7.208;2023-02-11T05:53:30;6.33;82.07
70830;SHT30;58451;51.550;7.208;2023-02-11T05:55:02;6.34;81.82
70830;SHT30;58451;51.550;7.208;2023-02-11T05:56:34;6.35;81.87
70830;SHT30;58451;51.550;7.208;2023-02-11T05:58:06;6.37;81.83
70830;SHT30;58451;51.550;7.208;2023-02-11T05:59:38;6.37;81.78
70830;SHT30;58451;51.550;7.208;2023-02-11T06:01:10;6.37;81.92
70830;SHT30;58451;51.550;7.208;2023-02-11T06:02:42;6.38;81.75
70830;SHT30;58451;51.550;7.208;2023-02-11T06:04:14;6.39;81.88
70830;SHT30;58451;51.550;7.208;2023-02-11T06:05:45;6.39;81.85
70830;SHT30;58451;51.550;7.208;2023-02-11T06:07:17;6.40;81.77
70830;SHT30;58451;51.550;7.208;2023-02-11T06:08:50;6.40;81.85
70830;SHT30;58451;51.550;7.208;2023-02-11T06:10:21;6.40;81.75
70830;SHT30;58451;51.550;7.208;2023-02-11T06:11:53;6.41;81.72
70830;SHT30;58451;51.550;7.208;2023-02-11T06:13:25;6.42;81.72
70830;SHT30;58451;51.550;7.208;2023-02-11T06:14:56;6.41;81.82
70830;SHT30;58451;51.550;7.208;2023-02-11T06:16:28;6.42;81.80
70830;SHT30;58451;51.550;7.208;2023-02-11T06:18:00;6.43;81.87
70830;SHT30;58451;51.550;7.208;2023-02-11T06:19:32;6.43;81.77
70830;SHT30;58451;51.550;7.208;2023-02-11T06:21:07;6.44;81.70
70830;SHT30;58451;51.550;7.208;2023-02-11T06:22:41;6.46;81.58
70830;SHT30;58451;51.550;7.208;2023-02-11T06:24:13;6.47;81.65
70830;SHT30;58451;51.550;7.208;2023-02-11T06:25:49;6.45;81.78
70830;SHT30;58451;51.550;7.208;2023-02-11T06:27:24;6.47;81.62
70830;SHT30;58451;51.550;7.208;2023-02-11T06:28:58;6.47;81.53
70830;SHT30;58451;51.550;7.208;2023-02-11T06:30:31;6.48;81.57
70830;SHT30;58451;51.550;7.208;2023-02-11T06:32:03;6.47;81.78
70830;SHT30;58451;51.550;7.208;2023-02-11T06:33:35;6.48;81.75
70830;SHT30;58451;51.550;7.208;2023-02-11T06:35:06;6.49;81.67
70830;SHT30;58451;51.550;7.208;2023-02-11T06:36:42;6.49;81.60
70830;SHT30;58451;51.550;7.208;2023-02-11T06:38:14;6.51;81.53
70830;SHT30;58451;51.550;7.208;2023-02-11T06:39:46;6.51;81.57
70830;SHT30;58451;51.550;7.208;2023-02-11T06:41:18;6.51;81.68
70830;SHT30;58451;51.550;7.208;2023-02-11T06:42:50;6.53;81.57
70830;SHT30;58451;51.550;7.208;2023-02-11T06:44:22;6.53;81.63
70830;SHT30;58451;51.550;7.208;2023-02-11T06:45:54;6.53;81.62
70830;SHT30;58451;51.550;7.208;2023-02-11T06:47:25;6.54;81.58
70830;SHT30;58451;51.550;7.208;2023-02-11T06:48:57;6.55;81.50
70830;SHT30;58451;51.550;7.208;2023-02-11T06:50:29;6.56;81.57
70830;SHT30;58451;51.550;7.208;2023-02-11T06:52:01;6.57;81.50
70830;SHT30;58451;51.550;7.208;2023-02-11T06:53:34;6.57;81.50
70830;SHT30;58451;51.550;7.208;2023-02-11T06:55:11;6.57;81.70
70830;SHT30;58451;51.550;7.208;2023-02-11T06:56:44;6.57;81.62
70830;SHT30;58451;51.550;7.208;2023-02-11T06:58:16;6.59;81.58
70830;SHT30;58451;51.550;7.208;2023-02-11T06:59:47;6.57;81.62
70830;SHT30;58451;51.550;7.208;2023-02-11T07:01:19;6.57;81.78
70830;SHT30;58451;51.550;7.208;2023-02-11T07:02:52;6.57;82.02
70830;SHT30;58451;51.550;7.208;2023-02-11T07:04:23;6.59;81.92
70830;SHT30;58451;51.550;7.208;2023-02-11T07:05:55;6.59;81.85
70830;SHT30;58451;51.550;7.208;2023-02-11T07:07:27;6.60;81.73
70830;SHT30;58451;51.550;7.208;2023-02-11T07:08:59;6.62;81.63
70830;SHT30;58451;51.550;7.208;2023-02-11T07:10:31;6.63;81.85
70830;SHT30;58451;51.550;7.208;2023-02-11T07:12:04;6.63;81.93
70830;SHT30;58451;51.550;7.208;2023-02-11T07:13:36;6.64;81.77
70830;SHT30;58451;51.550;7.208;2023-02-11T07:15:07;6.66;81.63
70830;SHT30;58451;51.550;7.208;2023-02-11T07:16:39;6.67;81.58
70830;SHT30;58451;51.550;7.208;2023-02-11T07:18:11;6.67;81.68
70830;SHT30;58451;51.550;7.208;2023-02-11T07:19:45;6.68;81.80
70830;SHT30;58451;51.550;7.208;2023-02-11T07:21:18;6.68;81.80
70830;SHT30;58451;51.550;7.208;2023-02-11T07:22:52;6.70;81.72
70830;SHT30;58451;51.550;7.208;2023-02-11T07:24:23;6.71;81.82
70830;SHT30;58451;51.550;7.208;2023-02-11T07:25:55;6.70;81.72
70830;SHT30;58451;51.550;7.208;2023-02-11T07:27:27;6.71;81.63
70830;SHT30;58451;51.550;7.208;2023-02-11T07:28:59;6.72;81.60
70830;SHT30;58451;51.550;7.208;2023-02-11T07:30:30;6.72;81.72
70830;SHT30;58451;51.550;7.208;2023-02-11T07:32:02;6.74;81.60
70830;SHT30;58451;51.550;7.208;2023-02-11T07:33:34;6.73;81.67
70830;SHT30;58451;51.550;7.208;2023-02-11T07:35:07;6.74;81.70
70830;SHT30;58451;51.550;7.208;2023-02-11T07:36:39;6.75;81.62
70830;SHT30;58451;51.550;7.208;2023-02-11T07:38:13;6.76;81.57
70830;SHT30;58451;51.550;7.208;2023-02-11T07:39:45;6.76;81.75
70830;SHT30;58451;51.550;7.208;2023-02-11T07:41:18;6.76;81.72
70830;SHT30;58451;51.550;7.208;2023-02-11T07:42:52;6.78;81.57
70830;SHT30;58451;51.550;7.208;2023-02-11T07:44:24;6.78;81.53
70830;SHT30;58451;51.550;7.208;2023-02-11T07:45:56;6.79;81.45
70830;SHT30;58451;51.550;7.208;2023-02-11T07:47:28;6.82;81.40
70830;SHT30;58451;51.550;7.208;2023-02-11T07:48:59;6.82;81.57
70830;SHT30;58451;51.550;7.208;2023-02-11T07:50:31;6.82;81.60
70830;SHT30;58451;51.550;7.208;2023-02-11T07:52:03;6.84;81.52
70830;SHT30;58451;51.550;7.208;2023-02-11T07:53:35;6.85;81.57
70830;SHT30;58451;51.550;7.208;2023-02-11T07:55:07;6.85;81.68
70830;SHT30;58451;51.550;7.208;2023-02-11T07:56:40;6.85;81.67
70830;SHT30;58451;51.550;7.208;2023-02-11T07:58:12;6.85;81.82
70830;SHT30;58451;51.550;7.208;2023-02-11T07:59:43;6.84;81.65
70830;SHT30;58451;51.550;7.208;2023-02-11T08:01:16;6.86;81.60
70830;SHT30;58451;51.550;7.208;2023-02-11T08:02:53;6.86;81.60
70830;SHT30;58451;51.550;7.208;2023-02-11T08:04:24;6.88;81.50
70830;SHT30;58451;51.550;7.208;2023-02-11T08:05:56;6.89;81.50
70830;SHT30;58451;51.550;7.208;2023-02-11T08:07:28;6.90;81.57
70830;SHT30;58451;51.550;7.208;2023-02-11T08:09:03;6.90;81.53
70830;SHT30;58451;51.550;7.208;2023-02-11T08:10:37;6.91;81.50
70830;SHT30;58451;51.550;7.208;2023-02-11T08:12:09;6.94;81.50
70830;SHT30;58451;51.550;7.208;2023-02-11T08:13:41;6.95;81.58
70830;SHT30;58451;51.550;7.208;2023-02-11T08:15:13;6.94;81.67
70830;SHT30;58451;51.550;7.208;2023-02-11T08:16:45;6.95;81.55
70830;SHT30;58451;51.550;7.208;2023-02-11T08:18:17;6.97;81.62
70830;SHT30;58451;51.550;7.208;2023-02-11T08:19:49;6.97;81.68
70830;SHT30;58451;51.550;7.208;2023-02-11T08:21:20;6.97;81.63
70830;SHT30;58451;51.550;7.208;2023-02-11T08:22:52;6.97;81.60
70830;SHT30;58451;51.550;7.208;2023-02-11T08:24:24;6.97;81.63
70830;SHT30;58451;51.550;7.208;2023-02-11T08:25:59;6.96;81.83
70830;SHT30;58451;51.550;7.208;2023-02-11T08:27:36;6.96;81.68
70830;SHT30;58451;51.550;7.208;2023-02-11T08:29:08;6.97;81.62
70830;SHT30;58451;51.550;7.208;2023-02-11T08:30:43;6.95;81.75
70830;SHT30;58451;51.550;7.208;2023-02-11T08:32:14;6.96;81.83
70830;SHT30;58451;51.550;7.208;2023-02-11T08:33:46;6.98;81.62
70830;SHT30;58451;51.550;7.208;2023-02-11T08:35:19;6.99;81.70
70830;SHT30;58451;51.550;7.208;2023-02-11T08:36:51;6.99;81.75
70830;SHT30;58451;51.550;7.208;2023-02-11T08:38:24;7.01;81.65
70830;SHT30;58451;51.550;7.208;2023-02-11T08:39:56;7.04;81.55
70830;SHT30;58451;51.550;7.208;2023-02-11T08:41:27;7.05;81.57
70830;SHT30;58451;51.550;7.208;2023-02-11T08:43:00;7.06;81.57
70830;SHT30;58451;51.550;7.208;2023-02-11T08:44:31;7.07;81.65
70830;SHT30;58451;51.550;7.208;2023-02-11T08:46:05;7.11;81.52
70830;SHT30;58451;51.550;7.208;2023-02-11T08:47:37;7.13;81.50
70830;SHT30;58451;51.550;7.208;2023-02-11T08:49:09;7.15;81.50
70830;SHT30;58451;51.550;7.208;2023-02-11T08:50:41;7.18;81.45
70830;SHT30;58451;51.550;7.208;2023-02-11T08:52:13;7.19;81.32
70830;SHT30;58451;51.550;7.208;2023-02-11T08:53:45;7.21;81.30
70830;SHT30;58451;51.550;7.208;2023-02-11T08:55:17;7.22;81.30
70830;SHT30;58451;51.550;7.208;2023-02-11T08:56:50;7.26;81.25
70830;SHT30;58451;51.550;7.208;2023-02-11T08:58:22;7.30;81.20
70830;SHT30;58451;51.550;7.208;2023-02-11T08:59:54;7.33;81.12
70830;SHT30;58451;51.550;7.208;2023-02-11T09:01:27;7.36;81.05
70830;SHT30;58451;51.550;7.208;2023-02-11T09:03:01;7.41;81.02
70830;SHT30;58451;51.550;7.208;2023-02-11T09:04:33;7.45;80.95
70830;SHT30;58451;51.550;7.208;2023-02-11T09:06:05;7.47;80.92
70830;SHT30;58451;51.550;7.208;2023-02-11T09:07:39;7.49;80.85
70830;SHT30;58451;51.550;7.208;2023-02-11T09:09:11;7.52;80.83
70830;SHT30;58451;51.550;7.208;2023-02-11T09:10:45;7.56;80.80
70830;SHT30;58451;51.550;7.208;2023-02-11T09:12:17;7.60;80.77
70830;SHT30;58451;51.550;7.208;2023-02-11T09:13:49;7.64;80.73
70830;SHT30;58451;51.550;7.208;2023-02-11T09:15:24;7.68;80.62
70830;SHT30;58451;51.550;7.208;2023-02-11T09:16:56;7.68;80.57
70830;SHT30;58451;51.550;7.208;2023-02-11T09:18:28;7.70;80.47
70830;SHT30;58451;51.550;7.208;2023-02-11T09:20:00;7.72;80.50
70830;SHT30;58451;51.550;7.208;2023-02-11T09:21:32;7.74;80.50
70830;SHT30;58451;51.550;7.208;2023-02-11T09:23:04;7.76;80.48
70830;SHT30;58451;51.550;7.208;2023-02-11T09:24:36;7.77;80.40
70830;SHT30;58451;51.550;7.208;2023-02-11T09:26:08;7.79;80.28
70830;SHT30;58451;51.550;7.208;2023-02-11T09:27:53;7.80;80.27
70830;SHT30;58451;51.550;7.208;2023-02-11T09:29:25;7.78;80.17
70830;SHT30;58451;51.550;7.208;2023-02-11T09:30:57;7.79;80.20
70830;SHT30;58451;51.550;7.208;2023-02-11T09:32:29;7.81;80.22
70830;SHT30;58451;51.550;7.208;2023-02-11T09:34:02;7.84;80.13
70830;SHT30;58451;51.550;7.208;2023-02-11T09:35:36;7.85;80.02
70830;SHT30;58451;51.550;7.208;2023-02-11T09:37:08;7.87;80.03
70830;SHT30;58451;51.550;7.208;2023-02-11T09:38:39;7.90;79.97
70830;SHT30;58451;51.550;7.208;2023-02-11T09:40:11;7.94;79.95
70830;SHT30;58451;51.550;7.208;2023-02-11T09:42:03;7.94;79.83
70830;SHT30;58451;51.550;7.208;2023-02-11T09:43:50;7.96;79.70
70830;SHT30;58451;51.550;7.208;2023-02-11T09:45:27;7.97;79.72
70830;SHT30;58451;51.550;7.208;2023-02-11T09:47:05;7.98;79.70
70830;SHT30;58451;51.550;7.208;2023-02-11T09:48:53;7.96;79.58
70830;SHT30;58451;51.550;7.208;2023-02-11T09:50:28;7.99;79.70
70830;SHT30;58451;51.550;7.208;2023-02-11T09:52:31;8.00;79.70
70830;SHT30;58451;51.550;7.208;2023-02-11T09:54:51;7.98;79.62
70830;SHT30;58451;51.550;7.208;2023-02-11T09:56:27;7.98;79.60
70830;SHT30;58451;51.550;7.208;2023-02-11T09:57:59;8.00;79.63
70830;SHT30;58451;51.550;7.208;2023-02-11T09:59:35;8.02;79.60
70830;SHT30;58451;51.550;7.208;2023-02-11T10:07:26;8.12;79.43
70830;SHT30;58451;51.550;7.208;2023-02-11T10:11:29;8.14;79.22
70830;SHT30;58451;51.550;7.208;2023-02-11T10:15:27;8.16;79.18
70830;SHT30;58451;51.550;7.208;2023-02-11T10:17:37;8.20;79.20
70830;SHT30;58451;51.550;7.208;2023-02-11T10:23:18;8.25;79.17
70830;SHT30;58451;51.550;7.208;2023-02-11T10:24:56;8.28;79.18
70830;SHT30;58451;51.550;7.208;2023-02-11T10:26:31;8.32;79.17
70830;SHT30;58451;51.550;7.208;2023-02-11T10:28:22;8.32;79.03
70830;SHT30;58451;51.550;7.208;2023-02-11T10:30:03;8.32;78.98
70830;SHT30;58451;51.550;7.208;2023-02-11T10:31:59;8.30;78.98
70830;SHT30;58451;51.550;7.208;2023-02-11T10:35:18;8.28;78.97
70830;SHT30;58451;51.550;7.208;2023-02-11T10:36:53;8.30;79.00
70830;SHT30;58451;51.550;7.208;2023-02-11T10:38:25;8.31;79.03
70830;SHT30;58451;51.550;7.208;2023-02-11T10:39:58;8.31;78.92
70830;SHT30;58451;51.550;7.208;2023-02-11T10:41:31;8.30;78.93
70830;SHT30;58451;51.550;7.208;2023-02-11T10:43:11;8.29;78.97
70830;SHT30;58451;51.550;7.208;2023-02-11T10:46:36;8.31;79.00
70830;SHT30;58451;51.550;7.208;2023-02-11T10:50:30;8.37;79.00
70830;SHT30;58451;51.550;7.208;2023-02-11T10:52:11;8.40;79.00
70830;SHT30;58451;51.550;7.208;2023-02-11T10:55:35;8.44;78.85
70830;SHT30;58451;51.550;7.208;2023-02-11T10:57:11;8.47;78.85
70830;SHT30;58451;51.550;7.208;2023-02-11T10:58:54;8.48;78.82
70830;SHT30;58451;51.550;7.208;2023-02-11T11:00:52;8.51;78.78
70830;SHT30;58451;51.550;7.208;2023-02-11T11:02:30;8.53;78.80
70830;SHT30;58451;51.550;7.208;2023-02-11T11:04:18;8.57;78.73
70830;SHT30;58451;51.550;7.208;2023-02-11T11:06:07;8.56;78.63
70830;SHT30;58451;51.550;7.208;2023-02-11T11:07:40;8.53;78.63
70830;SHT30;58451;51.550;7.208;2023-02-11T11:09:29;8.54;78.62